createdAt,value
2018-02-20T00:00:02.942Z,-2.92
2018-02-20T00:00:06.990Z,-2.92
2018-02-20T00:00:11.325Z,-2.92
2018-02-20T00:00:15.451Z,-2.92
2018-02-20T00:00:19.456Z,-2.91
2018-02-20T00:00:23.578Z,-2.92
2018-02-20T00:00:27.613Z,-2.92
2018-02-20T00:00:31.626Z,-2.91
2018-02-20T00:00:35.845Z,-2.92
2018-02-20T00:00:40.066Z,-2.91
2018-02-20T00:00:44.106Z,-2.91
2018-02-20T00:00:48.208Z,-2.91
2018-02-20T00:00:52.333Z,-2.91
2018-02-20T00:00:56.124Z,-2.91
2018-02-20T00:01:00.143Z,-2.91
2018-02-20T00:01:04.605Z,-2.91
2018-02-20T00:01:08.506Z,-2.9
2018-02-20T00:01:12.623Z,-2.91
2018-02-20T00:01:16.950Z,-2.91
2018-02-20T00:01:21.169Z,-2.91
2018-02-20T00:01:25.064Z,-2.9
2018-02-20T00:01:29.178Z,-2.9
2018-02-20T00:01:33.080Z,-2.9
2018-02-20T00:01:37.080Z,-2.9
2018-02-20T00:01:40.976Z,-2.9
2018-02-20T00:01:44.993Z,-2.9
2018-02-20T00:01:49.321Z,-2.9
2018-02-20T00:01:53.543Z,-2.9
2018-02-20T00:01:57.762Z,-2.89
2018-02-20T00:02:02.136Z,-2.9
2018-02-20T00:02:06.138Z,-2.88
2018-02-20T00:02:10.373Z,-2.87
2018-02-20T00:02:14.482Z,-2.89
2018-02-20T00:02:18.594Z,-2.88
2018-02-20T00:02:22.929Z,-2.89
2018-02-20T00:02:27.045Z,-2.9
2018-02-20T00:02:31.265Z,-2.88
2018-02-20T00:02:35.377Z,-2.88
2018-02-20T00:02:39.502Z,-2.87
2018-02-20T00:02:43.519Z,-2.87
2018-02-20T00:02:47.427Z,-2.87
2018-02-20T00:02:51.329Z,-2.88
2018-02-20T00:02:55.653Z,-2.88
2018-02-20T00:02:59.770Z,-2.88
2018-02-20T00:03:04.094Z,-2.87
2018-02-20T00:03:08.311Z,-2.87
2018-02-20T00:03:12.425Z,-2.87
2018-02-20T00:03:16.642Z,-2.87
2018-02-20T00:03:20.536Z,-2.87
2018-02-20T00:03:24.431Z,-2.86
2018-02-20T00:03:28.545Z,-2.87
2018-02-20T00:03:32.549Z,-2.86
2018-02-20T00:03:36.665Z,-2.87
2018-02-20T00:03:40.780Z,-2.87
2018-02-20T00:03:44.890Z,-2.85
2018-02-20T00:03:49.003Z,-2.86
2018-02-20T00:03:53.012Z,-2.85
2018-02-20T00:03:57.031Z,-2.85
2018-02-20T00:04:01.156Z,-2.86
2018-02-20T00:04:05.269Z,-2.86
2018-02-20T00:04:09.609Z,-2.86
2018-02-20T00:04:13.829Z,-2.85
2018-02-20T00:04:17.836Z,-2.85
2018-02-20T00:04:21.840Z,-2.85
2018-02-20T00:04:25.636Z,-2.84
2018-02-20T00:04:29.634Z,-2.85
2018-02-20T00:04:33.746Z,-2.85
2018-02-20T00:04:37.964Z,-2.85
2018-02-20T00:04:42.199Z,-2.85
2018-02-20T00:04:46.542Z,-2.84
2018-02-20T00:04:50.764Z,-2.84
2018-02-20T00:04:54.658Z,-2.84
2018-02-20T00:04:58.773Z,-2.83
2018-02-20T00:05:02.672Z,-2.84
2018-02-20T00:05:06.898Z,-2.84
2018-02-20T00:05:11.135Z,-2.83
2018-02-20T00:05:15.260Z,-2.83
2018-02-20T00:05:19.315Z,-2.84
2018-02-20T00:05:23.321Z,-2.83
2018-02-20T00:05:27.109Z,-2.83
2018-02-20T00:05:31.114Z,-2.83
2018-02-20T00:05:35.330Z,-2.83
2018-02-20T00:05:39.121Z,-2.84
2018-02-20T00:05:43.121Z,-2.83
2018-02-20T00:05:47.134Z,-2.84
2018-02-20T00:05:51.247Z,-2.83
2018-02-20T00:05:55.575Z,-2.83
2018-02-20T00:05:59.582Z,-2.83
2018-02-20T00:06:03.918Z,-2.82
2018-02-20T00:06:08.137Z,-2.83
2018-02-20T00:06:12.468Z,-2.82
2018-02-20T00:06:16.756Z,-2.83
2018-02-20T00:06:21.090Z,-2.83
2018-02-20T00:06:25.309Z,-2.83
2018-02-20T00:06:29.422Z,-2.82
2018-02-20T00:06:33.533Z,-2.81
2018-02-20T00:06:37.537Z,-2.81
2018-02-20T00:06:41.644Z,-2.82
2018-02-20T00:06:45.758Z,-2.82
2018-02-20T00:06:49.874Z,-2.82
2018-02-20T00:06:53.986Z,-2.81
2018-02-20T00:06:58.210Z,-2.81
2018-02-20T00:07:02.439Z,-2.82
2018-02-20T00:07:06.656Z,-2.81
2018-02-20T00:07:10.559Z,-2.82
2018-02-20T00:07:14.796Z,-2.81
2018-02-20T00:07:18.914Z,-2.81
2018-02-20T00:07:22.818Z,-2.81
2018-02-20T00:07:26.937Z,-2.81
2018-02-20T00:07:30.947Z,-2.8
2018-02-20T00:07:35.059Z,-2.8
2018-02-20T00:07:38.846Z,-2.8
2018-02-20T00:07:42.953Z,-2.8
2018-02-20T00:07:47.072Z,-2.8
2018-02-20T00:07:51.079Z,-2.8
2018-02-20T00:07:54.981Z,-2.79
2018-02-20T00:07:59.199Z,-2.8
2018-02-20T00:08:03.206Z,-2.79
2018-02-20T00:08:07.318Z,-2.79
2018-02-20T00:08:11.437Z,-2.79
2018-02-20T00:08:15.552Z,-2.79
2018-02-20T00:08:19.663Z,-2.79
2018-02-20T00:08:23.566Z,-2.79
2018-02-20T00:08:27.569Z,-2.78
2018-02-20T00:08:31.576Z,-2.78
2018-02-20T00:08:35.908Z,-2.78
2018-02-20T00:08:40.125Z,-2.78
2018-02-20T00:08:44.236Z,-2.78
2018-02-20T00:08:48.239Z,-2.79
2018-02-20T00:08:52.563Z,-2.77
2018-02-20T00:08:56.781Z,-2.78
2018-02-20T00:09:00.786Z,-2.78
2018-02-20T00:09:04.882Z,-2.78
2018-02-20T00:09:09.103Z,-2.78
2018-02-20T00:09:13.433Z,-2.77
2018-02-20T00:09:17.435Z,-2.78
2018-02-20T00:09:21.660Z,-2.77
2018-02-20T00:09:25.770Z,-2.77
2018-02-20T00:09:29.664Z,-2.78
2018-02-20T00:09:33.773Z,-2.77
2018-02-20T00:09:37.774Z,-2.78
2018-02-20T00:09:41.675Z,-2.77
2018-02-20T00:09:45.780Z,-2.77
2018-02-20T00:09:49.782Z,-2.77
2018-02-20T00:09:53.898Z,-2.78
2018-02-20T00:09:58.227Z,-2.77
2018-02-20T00:10:02.238Z,-2.77
2018-02-20T00:10:06.356Z,-2.77
2018-02-20T00:10:10.366Z,-2.77
2018-02-20T00:10:14.485Z,-2.77
2018-02-20T00:10:18.706Z,-2.76
2018-02-20T00:10:22.944Z,-2.77
2018-02-20T00:10:27.267Z,-2.77
2018-02-20T00:10:31.592Z,-2.77
2018-02-20T00:10:35.699Z,-2.77
2018-02-20T00:10:39.924Z,-2.77
2018-02-20T00:10:43.820Z,-2.76
2018-02-20T00:10:47.932Z,-2.76
2018-02-20T00:10:51.738Z,-2.76
2018-02-20T00:10:55.750Z,-2.76
2018-02-20T00:10:59.870Z,-2.77
2018-02-20T00:11:04.286Z,-2.77
2018-02-20T00:11:08.503Z,-2.76
2018-02-20T00:11:12.724Z,-2.76
2018-02-20T00:11:16.853Z,-2.76
2018-02-20T00:11:20.965Z,-2.76
2018-02-20T00:11:24.970Z,-2.75
2018-02-20T00:11:28.872Z,-2.75
2018-02-20T00:11:32.769Z,-2.76
2018-02-20T00:11:36.924Z,-2.75
2018-02-20T00:11:40.929Z,-2.76
2018-02-20T00:11:45.037Z,-2.75
2018-02-20T00:11:49.146Z,-2.75
2018-02-20T00:11:53.478Z,-2.75
2018-02-20T00:11:57.801Z,-2.75
2018-02-20T00:12:01.701Z,-2.75
2018-02-20T00:12:05.812Z,-2.75
2018-02-20T00:12:09.928Z,-2.75
2018-02-20T00:12:13.931Z,-2.75
2018-02-20T00:12:17.829Z,-2.75
2018-02-20T00:12:21.939Z,-2.75
2018-02-20T00:12:25.831Z,-2.75
2018-02-20T00:12:29.950Z,-2.75
2018-02-20T00:12:33.852Z,-2.75
2018-02-20T00:12:37.963Z,-2.75
2018-02-20T00:12:41.754Z,-2.74
2018-02-20T00:12:45.756Z,-2.74
2018-02-20T00:12:49.542Z,-2.74
2018-02-20T00:12:53.549Z,-2.74
2018-02-20T00:12:57.764Z,-2.74
2018-02-20T00:13:02.396Z,-2.74
2018-02-20T00:13:06.515Z,-2.74
2018-02-20T00:13:10.733Z,-2.74
2018-02-20T00:13:14.948Z,-2.73
2018-02-20T00:13:19.323Z,-2.74
2018-02-20T00:13:23.223Z,-2.74
2018-02-20T00:13:27.336Z,-2.73
2018-02-20T00:13:31.658Z,-2.74
2018-02-20T00:13:35.872Z,-2.74
2018-02-20T00:13:40.094Z,-2.74
2018-02-20T00:13:44.306Z,-2.73
2018-02-20T00:13:48.632Z,-2.74
2018-02-20T00:13:52.736Z,-2.73
2018-02-20T00:13:56.748Z,-2.74
2018-02-20T00:14:00.859Z,-2.74
2018-02-20T00:14:05.079Z,-2.73
2018-02-20T00:14:09.091Z,-2.73
2018-02-20T00:14:12.990Z,-2.73
2018-02-20T00:14:17.208Z,-2.73
2018-02-20T00:14:21.451Z,-2.73
2018-02-20T00:14:25.680Z,-2.73
2018-02-20T00:14:29.795Z,-2.73
2018-02-20T00:14:34.014Z,-2.74
2018-02-20T00:14:38.026Z,-2.72
2018-02-20T00:14:42.250Z,-2.73
2018-02-20T00:14:46.250Z,-2.73
2018-02-20T00:14:50.467Z,-2.73
2018-02-20T00:14:54.576Z,-2.72
2018-02-20T00:14:58.696Z,-2.72
2018-02-20T00:15:02.820Z,-2.72
2018-02-20T00:15:07.150Z,-2.72
2018-02-20T00:15:11.478Z,-2.72
2018-02-20T00:15:15.590Z,-2.72
2018-02-20T00:15:19.658Z,-2.72
2018-02-20T00:15:23.770Z,-2.73
2018-02-20T00:15:27.774Z,-2.73
2018-02-20T00:15:31.881Z,-2.72
2018-02-20T00:15:35.780Z,-2.73
2018-02-20T00:15:39.905Z,-2.72
2018-02-20T00:15:43.917Z,-2.72
2018-02-20T00:15:48.137Z,-2.72
2018-02-20T00:15:52.291Z,-2.72
2018-02-20T00:15:56.291Z,-2.73
2018-02-20T00:16:00.507Z,-2.72
2018-02-20T00:16:04.404Z,-2.73
2018-02-20T00:16:08.301Z,-2.73
2018-02-20T00:16:12.315Z,-2.72
2018-02-20T00:16:16.539Z,-2.72
2018-02-20T00:16:20.757Z,-2.73
2018-02-20T00:16:24.773Z,-2.73
2018-02-20T00:16:28.881Z,-2.72
2018-02-20T00:16:32.990Z,-2.72
2018-02-20T00:16:37.109Z,-2.72
2018-02-20T00:16:41.229Z,-2.71
2018-02-20T00:16:45.346Z,-2.73
2018-02-20T00:16:49.360Z,-2.72
2018-02-20T00:16:53.369Z,-2.72
2018-02-20T00:16:57.481Z,-2.72
2018-02-20T00:17:01.587Z,-2.72
2018-02-20T00:17:05.698Z,-2.72
2018-02-20T00:17:09.917Z,-2.72
2018-02-20T00:17:13.934Z,-2.72
2018-02-20T00:17:18.160Z,-2.72
2018-02-20T00:17:22.276Z,-2.72
2018-02-20T00:17:26.384Z,-2.72
2018-02-20T00:17:30.385Z,-2.72
2018-02-20T00:17:34.492Z,-2.72
2018-02-20T00:17:38.499Z,-2.73
2018-02-20T00:17:42.286Z,-2.72
2018-02-20T00:17:46.401Z,-2.73
2018-02-20T00:17:50.192Z,-2.73
2018-02-20T00:17:54.307Z,-2.72
2018-02-20T00:17:58.315Z,-2.73
2018-02-20T00:18:02.567Z,-2.73
2018-02-20T00:18:06.786Z,-2.73
2018-02-20T00:18:10.901Z,-2.73
2018-02-20T00:18:15.122Z,-2.72
2018-02-20T00:18:19.460Z,-2.73
2018-02-20T00:18:23.568Z,-2.73
2018-02-20T00:18:27.464Z,-2.73
2018-02-20T00:18:31.467Z,-2.73
2018-02-20T00:18:35.579Z,-2.73
2018-02-20T00:18:39.806Z,-2.74
2018-02-20T00:18:43.808Z,-2.73
2018-02-20T00:18:47.708Z,-2.73
2018-02-20T00:18:51.721Z,-2.74
2018-02-20T00:18:55.402Z,-2.74
2018-02-20T00:18:59.622Z,-2.74
2018-02-20T00:19:03.948Z,-2.73
2018-02-20T00:19:07.841Z,-2.73
2018-02-20T00:19:12.063Z,-2.74
2018-02-20T00:19:16.285Z,-2.73
2018-02-20T00:19:20.396Z,-2.73
2018-02-20T00:19:24.525Z,-2.75
2018-02-20T00:19:28.532Z,-2.74
2018-02-20T00:19:32.540Z,-2.74
2018-02-20T00:19:36.764Z,-2.74
2018-02-20T00:19:40.869Z,-2.74
2018-02-20T00:19:44.984Z,-2.74
2018-02-20T00:19:49.102Z,-2.74
2018-02-20T00:19:53.323Z,-2.75
2018-02-20T00:19:57.537Z,-2.74
2018-02-20T00:20:01.546Z,-2.73
2018-02-20T00:20:05.765Z,-2.74
2018-02-20T00:20:09.990Z,-2.74
2018-02-20T00:20:14.215Z,-2.74
2018-02-20T00:20:18.223Z,-2.73
2018-02-20T00:20:22.440Z,-2.74
2018-02-20T00:20:26.656Z,-2.74
2018-02-20T00:20:30.880Z,-2.74
2018-02-20T00:20:34.990Z,-2.75
2018-02-20T00:20:39.205Z,-2.75
2018-02-20T00:20:42.990Z,-2.74
2018-02-20T00:20:46.995Z,-2.74
2018-02-20T00:20:50.997Z,-2.74
2018-02-20T00:20:55.117Z,-2.74
2018-02-20T00:20:59.222Z,-2.73
2018-02-20T00:21:03.224Z,-2.73
2018-02-20T00:21:07.015Z,-2.74
2018-02-20T00:21:11.273Z,-2.73
2018-02-20T00:21:15.288Z,-2.74
2018-02-20T00:21:19.508Z,-2.74
2018-02-20T00:21:23.725Z,-2.74
2018-02-20T00:21:27.855Z,-2.73
2018-02-20T00:21:32.067Z,-2.74
2018-02-20T00:21:36.295Z,-2.74
2018-02-20T00:21:40.423Z,-2.74
2018-02-20T00:21:44.319Z,-2.73
2018-02-20T00:21:48.482Z,-2.74
2018-02-20T00:21:52.273Z,-2.74
2018-02-20T00:21:56.499Z,-2.74
2018-02-20T00:22:00.722Z,-2.74
2018-02-20T00:22:05.087Z,-2.73
2018-02-20T00:22:09.102Z,-2.74
2018-02-20T00:22:13.325Z,-2.73
2018-02-20T00:22:17.653Z,-2.73
2018-02-20T00:22:21.765Z,-2.72
2018-02-20T00:22:25.893Z,-2.73
2018-02-20T00:22:30.230Z,-2.73
2018-02-20T00:22:34.356Z,-2.72
2018-02-20T00:22:38.574Z,-2.73
2018-02-20T00:22:42.254Z,-2.72
2018-02-20T00:22:46.152Z,-2.72
2018-02-20T00:22:50.268Z,-2.72
2018-02-20T00:22:54.491Z,-2.74
2018-02-20T00:22:58.732Z,-2.72
2018-02-20T00:23:03.406Z,-2.72
2018-02-20T00:23:07.522Z,-2.72
2018-02-20T00:23:11.634Z,-2.72
2018-02-20T00:23:15.526Z,-2.73
2018-02-20T00:23:19.421Z,-2.72
2018-02-20T00:23:23.750Z,-2.72
2018-02-20T00:23:27.967Z,-2.73
2018-02-20T00:23:32.084Z,-2.72
2018-02-20T00:23:36.086Z,-2.72
2018-02-20T00:23:40.208Z,-2.73
2018-02-20T00:23:44.215Z,-2.73
2018-02-20T00:23:48.325Z,-2.72
2018-02-20T00:23:52.439Z,-2.73
2018-02-20T00:23:56.667Z,-2.73
2018-02-20T00:24:00.893Z,-2.72
2018-02-20T00:24:05.119Z,-2.73
2018-02-20T00:24:09.235Z,-2.72
2018-02-20T00:24:13.246Z,-2.72
2018-02-20T00:24:17.386Z,-2.72
2018-02-20T00:24:21.603Z,-2.72
2018-02-20T00:24:25.712Z,-2.72
2018-02-20T00:24:29.832Z,-2.71
2018-02-20T00:24:33.938Z,-2.71
2018-02-20T00:24:38.054Z,-2.71
2018-02-20T00:24:42.169Z,-2.71
2018-02-20T00:24:46.185Z,-2.71
2018-02-20T00:24:50.078Z,-2.71
2018-02-20T00:24:54.080Z,-2.71
2018-02-20T00:24:58.092Z,-2.7
2018-02-20T00:25:02.100Z,-2.71
2018-02-20T00:25:06.323Z,-2.71
2018-02-20T00:25:10.656Z,-2.7
2018-02-20T00:25:14.879Z,-2.71
2018-02-20T00:25:19.264Z,-2.71
2018-02-20T00:25:23.517Z,-2.7
2018-02-20T00:25:27.735Z,-2.71
2018-02-20T00:25:31.851Z,-2.7
2018-02-20T00:25:35.855Z,-2.7
2018-02-20T00:25:39.960Z,-2.71
2018-02-20T00:25:44.178Z,-2.7
2018-02-20T00:25:48.079Z,-2.69
2018-02-20T00:25:52.306Z,-2.7
2018-02-20T00:25:56.427Z,-2.7
2018-02-20T00:26:00.778Z,-2.7
2018-02-20T00:26:04.893Z,-2.7
2018-02-20T00:26:09.157Z,-2.7
2018-02-20T00:26:13.277Z,-2.7
2018-02-20T00:26:17.496Z,-2.7
2018-02-20T00:26:21.605Z,-2.7
2018-02-20T00:26:25.854Z,-2.69
2018-02-20T00:26:29.763Z,-2.7
2018-02-20T00:26:33.768Z,-2.7
2018-02-20T00:26:37.881Z,-2.7
2018-02-20T00:26:42.205Z,-2.7
2018-02-20T00:26:46.316Z,-2.69
2018-02-20T00:26:50.536Z,-2.7
2018-02-20T00:26:54.543Z,-2.7
2018-02-20T00:26:58.450Z,-2.71
2018-02-20T00:27:02.612Z,-2.7
2018-02-20T00:27:06.726Z,-2.69
2018-02-20T00:27:10.733Z,-2.7
2018-02-20T00:27:14.962Z,-2.7
2018-02-20T00:27:18.967Z,-2.7
2018-02-20T00:27:23.076Z,-2.7
2018-02-20T00:27:27.404Z,-2.7
2018-02-20T00:27:31.516Z,-2.7
2018-02-20T00:27:35.732Z,-2.7
2018-02-20T00:27:39.954Z,-2.7
2018-02-20T00:27:44.283Z,-2.7
2018-02-20T00:27:48.505Z,-2.69
2018-02-20T00:27:52.515Z,-2.69
2018-02-20T00:27:56.411Z,-2.69
2018-02-20T00:28:00.592Z,-2.7
2018-02-20T00:28:04.598Z,-2.7
2018-02-20T00:28:08.603Z,-2.7
2018-02-20T00:28:12.605Z,-2.69
2018-02-20T00:28:16.720Z,-2.7
2018-02-20T00:28:20.612Z,-2.7
2018-02-20T00:28:24.621Z,-2.71
2018-02-20T00:28:28.842Z,-2.7
2018-02-20T00:28:32.845Z,-2.7
2018-02-20T00:28:36.965Z,-2.7
2018-02-20T00:28:41.193Z,-2.7
2018-02-20T00:28:45.086Z,-2.7
2018-02-20T00:28:48.987Z,-2.7
2018-02-20T00:28:53.104Z,-2.7
2018-02-20T00:28:57.434Z,-2.7
2018-02-20T00:29:01.445Z,-2.7
2018-02-20T00:29:05.457Z,-2.71
2018-02-20T00:29:09.460Z,-2.7
2018-02-20T00:29:13.684Z,-2.7
2018-02-20T00:29:17.694Z,-2.7
2018-02-20T00:29:21.803Z,-2.7
2018-02-20T00:29:25.705Z,-2.7
2018-02-20T00:29:29.604Z,-2.71
2018-02-20T00:29:33.828Z,-2.7
2018-02-20T00:29:37.940Z,-2.71
2018-02-20T00:29:41.950Z,-2.7
2018-02-20T00:29:45.852Z,-2.7
2018-02-20T00:29:50.191Z,-2.7
2018-02-20T00:29:54.410Z,-2.7
2018-02-20T00:29:58.634Z,-2.7
2018-02-20T00:30:02.788Z,-2.7
2018-02-20T00:30:07.000Z,-2.7
2018-02-20T00:30:11.117Z,-2.7
2018-02-20T00:30:15.018Z,-2.71
2018-02-20T00:30:19.130Z,-2.71
2018-02-20T00:30:23.355Z,-2.7
2018-02-20T00:30:27.367Z,-2.71
2018-02-20T00:30:31.597Z,-2.71
2018-02-20T00:30:35.924Z,-2.72
2018-02-20T00:30:39.932Z,-2.72
2018-02-20T00:30:44.052Z,-2.71
2018-02-20T00:30:48.060Z,-2.71
2018-02-20T00:30:52.176Z,-2.71
2018-02-20T00:30:55.969Z,-2.71
2018-02-20T00:31:00.093Z,-2.71
2018-02-20T00:31:04.301Z,-2.71
2018-02-20T00:31:08.518Z,-2.71
2018-02-20T00:31:12.525Z,-2.72
2018-02-20T00:31:16.742Z,-2.72
2018-02-20T00:31:20.857Z,-2.72
2018-02-20T00:31:24.860Z,-2.73
2018-02-20T00:31:29.185Z,-2.72
2018-02-20T00:31:33.418Z,-2.72
2018-02-20T00:31:37.750Z,-2.72
2018-02-20T00:31:41.648Z,-2.72
2018-02-20T00:31:45.771Z,-2.72
2018-02-20T00:31:49.882Z,-2.73
2018-02-20T00:31:54.099Z,-2.73
2018-02-20T00:31:58.432Z,-2.73
2018-02-20T00:32:02.434Z,-2.73
2018-02-20T00:32:06.765Z,-2.73
2018-02-20T00:32:10.660Z,-2.74
2018-02-20T00:32:14.770Z,-2.73
2018-02-20T00:32:18.778Z,-2.73
2018-02-20T00:32:22.894Z,-2.74
2018-02-20T00:32:27.005Z,-2.74
2018-02-20T00:32:31.123Z,-2.74
2018-02-20T00:32:35.233Z,-2.75
2018-02-20T00:32:39.401Z,-2.74
2018-02-20T00:32:43.535Z,-2.74
2018-02-20T00:32:47.432Z,-2.74
2018-02-20T00:32:51.439Z,-2.75
2018-02-20T00:32:55.659Z,-2.74
2018-02-20T00:32:59.768Z,-2.75
2018-02-20T00:33:04.033Z,-2.75
2018-02-20T00:33:08.045Z,-2.75
2018-02-20T00:33:12.371Z,-2.75
2018-02-20T00:33:16.484Z,-2.75
2018-02-20T00:33:20.704Z,-2.76
2018-02-20T00:33:24.706Z,-2.76
2018-02-20T00:33:28.914Z,-2.75
2018-02-20T00:33:33.035Z,-2.77
2018-02-20T00:33:37.145Z,-2.76
2018-02-20T00:33:41.264Z,-2.76
2018-02-20T00:33:45.379Z,-2.76
2018-02-20T00:33:49.504Z,-2.78
2018-02-20T00:33:53.728Z,-2.77
2018-02-20T00:33:57.942Z,-2.76
2018-02-20T00:34:02.404Z,-2.78
2018-02-20T00:34:06.411Z,-2.77
2018-02-20T00:34:10.570Z,-2.77
2018-02-20T00:34:14.795Z,-2.77
2018-02-20T00:34:19.019Z,-2.78
2018-02-20T00:34:23.023Z,-2.78
2018-02-20T00:34:27.243Z,-2.77
2018-02-20T00:34:31.468Z,-2.78
2018-02-20T00:34:35.486Z,-2.78
2018-02-20T00:34:39.540Z,-2.78
2018-02-20T00:34:43.446Z,-2.79
2018-02-20T00:34:47.349Z,-2.78
2018-02-20T00:34:51.578Z,-2.79
2018-02-20T00:34:55.592Z,-2.79
2018-02-20T00:34:59.720Z,-2.79
2018-02-20T00:35:03.610Z,-2.79
2018-02-20T00:35:07.733Z,-2.79
2018-02-20T00:35:11.855Z,-2.79
2018-02-20T00:35:16.076Z,-2.79
2018-02-20T00:35:20.188Z,-2.79
2018-02-20T00:35:24.297Z,-2.8
2018-02-20T00:35:28.195Z,-2.8
2018-02-20T00:35:32.203Z,-2.79
2018-02-20T00:35:36.213Z,-2.8
2018-02-20T00:35:40.431Z,-2.8
2018-02-20T00:35:44.443Z,-2.8
2018-02-20T00:35:48.346Z,-2.8
2018-02-20T00:35:52.358Z,-2.79
2018-02-20T00:35:56.471Z,-2.8
2018-02-20T00:36:00.377Z,-2.8
2018-02-20T00:36:04.393Z,-2.8
2018-02-20T00:36:08.306Z,-2.8
2018-02-20T00:36:12.317Z,-2.81
2018-02-20T00:36:16.541Z,-2.8
2018-02-20T00:36:20.865Z,-2.8
2018-02-20T00:36:24.652Z,-2.8
2018-02-20T00:36:28.765Z,-2.8
2018-02-20T00:36:32.772Z,-2.8
2018-02-20T00:36:36.883Z,-2.81
2018-02-20T00:36:40.893Z,-2.8
2018-02-20T00:36:45.012Z,-2.8
2018-02-20T00:36:49.141Z,-2.8
2018-02-20T00:36:53.040Z,-2.81
2018-02-20T00:36:57.047Z,-2.81
2018-02-20T00:37:01.154Z,-2.8
2018-02-20T00:37:05.489Z,-2.8
2018-02-20T00:37:09.494Z,-2.81
2018-02-20T00:37:13.608Z,-2.81
2018-02-20T00:37:17.619Z,-2.81
2018-02-20T00:37:21.732Z,-2.81
2018-02-20T00:37:25.730Z,-2.8
2018-02-20T00:37:29.845Z,-2.81
2018-02-20T00:37:33.848Z,-2.81
2018-02-20T00:37:37.967Z,-2.8
2018-02-20T00:37:41.979Z,-2.81
2018-02-20T00:37:45.984Z,-2.81
2018-02-20T00:37:49.998Z,-2.82
2018-02-20T00:37:53.789Z,-2.81
2018-02-20T00:37:58.017Z,-2.81
2018-02-20T00:38:02.273Z,-2.81
2018-02-20T00:38:06.384Z,-2.81
2018-02-20T00:38:10.497Z,-2.81
2018-02-20T00:38:14.394Z,-2.81
2018-02-20T00:38:18.508Z,-2.81
2018-02-20T00:38:22.510Z,-2.81
2018-02-20T00:38:26.513Z,-2.81
2018-02-20T00:38:30.733Z,-2.8
2018-02-20T00:38:34.639Z,-2.81
2018-02-20T00:38:38.879Z,-2.81
2018-02-20T00:38:42.878Z,-2.81
2018-02-20T00:38:46.775Z,-2.81
2018-02-20T00:38:50.674Z,-2.81
2018-02-20T00:38:54.896Z,-2.81
2018-02-20T00:38:59.009Z,-2.81
2018-02-20T00:39:03.021Z,-2.81
2018-02-20T00:39:07.244Z,-2.81
2018-02-20T00:39:11.574Z,-2.8
2018-02-20T00:39:15.587Z,-2.8
2018-02-20T00:39:19.593Z,-2.8
2018-02-20T00:39:23.807Z,-2.82
2018-02-20T00:39:27.599Z,-2.82
2018-02-20T00:39:31.503Z,-2.81
2018-02-20T00:39:35.729Z,-2.82
2018-02-20T00:39:39.838Z,-2.8
2018-02-20T00:39:43.994Z,-2.81
2018-02-20T00:39:47.998Z,-2.8
2018-02-20T00:39:52.217Z,-2.81
2018-02-20T00:39:56.326Z,-2.81
2018-02-20T00:40:00.563Z,-2.8
2018-02-20T00:40:04.464Z,-2.8
2018-02-20T00:40:08.679Z,-2.8
2018-02-20T00:40:12.694Z,-2.8
2018-02-20T00:40:16.706Z,-2.8
2018-02-20T00:40:20.817Z,-2.8
2018-02-20T00:40:24.929Z,-2.8
2018-02-20T00:40:29.155Z,-2.8
2018-02-20T00:40:33.263Z,-2.79
2018-02-20T00:40:37.595Z,-2.79
2018-02-20T00:40:41.599Z,-2.79
2018-02-20T00:40:45.494Z,-2.79
2018-02-20T00:40:49.604Z,-2.8
2018-02-20T00:40:53.829Z,-2.79
2018-02-20T00:40:57.728Z,-2.79
2018-02-20T00:41:01.626Z,-2.79
2018-02-20T00:41:05.846Z,-2.8
2018-02-20T00:41:10.181Z,-2.79
2018-02-20T00:41:14.291Z,-2.78
2018-02-20T00:41:18.624Z,-2.79
2018-02-20T00:41:22.852Z,-2.79
2018-02-20T00:41:26.865Z,-2.78
2018-02-20T00:41:30.976Z,-2.78
2018-02-20T00:41:35.100Z,-2.79
2018-02-20T00:41:39.124Z,-2.78
2018-02-20T00:41:43.345Z,-2.77
2018-02-20T00:41:47.247Z,-2.77
2018-02-20T00:41:51.147Z,-2.77
2018-02-20T00:41:55.154Z,-2.78
2018-02-20T00:41:59.066Z,-2.77
2018-02-20T00:42:03.226Z,-2.78
2018-02-20T00:42:07.333Z,-2.76
2018-02-20T00:42:11.459Z,-2.77
2018-02-20T00:42:15.355Z,-2.77
2018-02-20T00:42:19.464Z,-2.77
2018-02-20T00:42:23.790Z,-2.77
2018-02-20T00:42:27.910Z,-2.77
2018-02-20T00:42:32.242Z,-2.76
2018-02-20T00:42:36.352Z,-2.77
2018-02-20T00:42:40.359Z,-2.78
2018-02-20T00:42:44.580Z,-2.77
2018-02-20T00:42:48.262Z,-2.76
2018-02-20T00:42:52.373Z,-2.78
2018-02-20T00:42:56.589Z,-2.77
2018-02-20T00:43:00.589Z,-2.78
2018-02-20T00:43:04.922Z,-2.76
2018-02-20T00:43:09.142Z,-2.77
2018-02-20T00:43:13.369Z,-2.77
2018-02-20T00:43:17.270Z,-2.77
2018-02-20T00:43:21.385Z,-2.75
2018-02-20T00:43:25.503Z,-2.77
2018-02-20T00:43:29.606Z,-2.77
2018-02-20T00:43:33.607Z,-2.77
2018-02-20T00:43:37.614Z,-2.77
2018-02-20T00:43:41.731Z,-2.77
2018-02-20T00:43:45.735Z,-2.77
2018-02-20T00:43:49.747Z,-2.76
2018-02-20T00:43:53.751Z,-2.77
2018-02-20T00:43:57.657Z,-2.76
2018-02-20T00:44:02.121Z,-2.77
2018-02-20T00:44:06.343Z,-2.76
2018-02-20T00:44:10.607Z,-2.77
2018-02-20T00:44:14.720Z,-2.77
2018-02-20T00:44:18.516Z,-2.77
2018-02-20T00:44:22.520Z,-2.76
2018-02-20T00:44:26.528Z,-2.76
2018-02-20T00:44:30.762Z,-2.77
2018-02-20T00:44:34.989Z,-2.77
2018-02-20T00:44:38.992Z,-2.77
2018-02-20T00:44:43.322Z,-2.76
2018-02-20T00:44:47.336Z,-2.75
2018-02-20T00:44:51.344Z,-2.77
2018-02-20T00:44:55.556Z,-2.76
2018-02-20T00:44:59.462Z,-2.77
2018-02-20T00:45:03.988Z,-2.77
2018-02-20T00:45:07.995Z,-2.76
2018-02-20T00:45:12.330Z,-2.77
2018-02-20T00:45:16.342Z,-2.77
2018-02-20T00:45:20.351Z,-2.77
2018-02-20T00:45:24.577Z,-2.77
2018-02-20T00:45:28.586Z,-2.78
2018-02-20T00:45:32.594Z,-2.77
2018-02-20T00:45:36.387Z,-2.77
2018-02-20T00:45:40.507Z,-2.76
2018-02-20T00:45:44.838Z,-2.77
2018-02-20T00:45:48.739Z,-2.77
2018-02-20T00:45:52.645Z,-2.78
2018-02-20T00:45:56.868Z,-2.78
2018-02-20T00:46:00.983Z,-2.78
2018-02-20T00:46:05.159Z,-2.77
2018-02-20T00:46:09.166Z,-2.79
2018-02-20T00:46:13.067Z,-2.78
2018-02-20T00:46:16.965Z,-2.78
2018-02-20T00:46:21.290Z,-2.78
2018-02-20T00:46:25.086Z,-2.78
2018-02-20T00:46:29.095Z,-2.79
2018-02-20T00:46:33.247Z,-2.78
2018-02-20T00:46:37.471Z,-2.79
2018-02-20T00:46:41.475Z,-2.79
2018-02-20T00:46:45.584Z,-2.79
2018-02-20T00:46:49.587Z,-2.8
2018-02-20T00:46:53.596Z,-2.79
2018-02-20T00:46:57.821Z,-2.8
2018-02-20T00:47:01.937Z,-2.8
2018-02-20T00:47:06.104Z,-2.79
2018-02-20T00:47:10.324Z,-2.8
2018-02-20T00:47:14.650Z,-2.8
2018-02-20T00:47:18.871Z,-2.8
2018-02-20T00:47:22.667Z,-2.8
2018-02-20T00:47:26.785Z,-2.81
2018-02-20T00:47:30.901Z,-2.81
2018-02-20T00:47:34.804Z,-2.81
2018-02-20T00:47:38.810Z,-2.81
2018-02-20T00:47:42.917Z,-2.81
2018-02-20T00:47:46.924Z,-2.81
2018-02-20T00:47:50.821Z,-2.81
2018-02-20T00:47:54.721Z,-2.82
2018-02-20T00:47:58.834Z,-2.81
2018-02-20T00:48:02.941Z,-2.81
2018-02-20T00:48:06.952Z,-2.82
2018-02-20T00:48:11.172Z,-2.82
2018-02-20T00:48:15.178Z,-2.82
2018-02-20T00:48:19.178Z,-2.82
2018-02-20T00:48:23.296Z,-2.81
2018-02-20T00:48:27.412Z,-2.82
2018-02-20T00:48:31.415Z,-2.82
2018-02-20T00:48:35.751Z,-2.82
2018-02-20T00:48:39.758Z,-2.82
2018-02-20T00:48:44.082Z,-2.82
2018-02-20T00:48:48.302Z,-2.83
2018-02-20T00:48:52.676Z,-2.82
2018-02-20T00:48:56.784Z,-2.83
2018-02-20T00:49:00.792Z,-2.82
2018-02-20T00:49:05.010Z,-2.83
2018-02-20T00:49:09.019Z,-2.83
2018-02-20T00:49:12.915Z,-2.83
2018-02-20T00:49:16.812Z,-2.83
2018-02-20T00:49:21.034Z,-2.83
2018-02-20T00:49:25.140Z,-2.84
2018-02-20T00:49:29.032Z,-2.83
2018-02-20T00:49:33.147Z,-2.83
2018-02-20T00:49:37.155Z,-2.83
2018-02-20T00:49:41.262Z,-2.84
2018-02-20T00:49:45.481Z,-2.84
2018-02-20T00:49:49.601Z,-2.83
2018-02-20T00:49:53.822Z,-2.84
2018-02-20T00:49:57.835Z,-2.83
2018-02-20T00:50:01.845Z,-2.84
2018-02-20T00:50:06.048Z,-2.83
2018-02-20T00:50:10.164Z,-2.84
2018-02-20T00:50:14.279Z,-2.83
2018-02-20T00:50:18.396Z,-2.84
2018-02-20T00:50:22.510Z,-2.84
2018-02-20T00:50:26.414Z,-2.85
2018-02-20T00:50:30.425Z,-2.84
2018-02-20T00:50:34.544Z,-2.85
2018-02-20T00:50:38.551Z,-2.84
2018-02-20T00:50:42.665Z,-2.85
2018-02-20T00:50:47.003Z,-2.84
2018-02-20T00:50:51.118Z,-2.85
2018-02-20T00:50:55.238Z,-2.84
2018-02-20T00:50:59.349Z,-2.85
2018-02-20T00:51:03.821Z,-2.84
2018-02-20T00:51:08.054Z,-2.84
2018-02-20T00:51:12.053Z,-2.85
2018-02-20T00:51:16.162Z,-2.85
2018-02-20T00:51:20.288Z,-2.84
2018-02-20T00:51:24.625Z,-2.85
2018-02-20T00:51:28.847Z,-2.85
2018-02-20T00:51:33.172Z,-2.84
2018-02-20T00:51:37.405Z,-2.85
2018-02-20T00:51:41.409Z,-2.85
2018-02-20T00:51:45.627Z,-2.85
2018-02-20T00:51:49.746Z,-2.86
2018-02-20T00:51:53.857Z,-2.85
2018-02-20T00:51:57.652Z,-2.85
2018-02-20T00:52:01.436Z,-2.85
2018-02-20T00:52:05.511Z,-2.85
2018-02-20T00:52:09.520Z,-2.86
2018-02-20T00:52:13.526Z,-2.85
2018-02-20T00:52:17.850Z,-2.86
2018-02-20T00:52:21.859Z,-2.86
2018-02-20T00:52:25.970Z,-2.85
2018-02-20T00:52:29.976Z,-2.85
2018-02-20T00:52:34.083Z,-2.86
2018-02-20T00:52:38.305Z,-2.85
2018-02-20T00:52:42.417Z,-2.85
2018-02-20T00:52:46.645Z,-2.85
2018-02-20T00:52:50.649Z,-2.85
2018-02-20T00:52:54.867Z,-2.85
2018-02-20T00:52:58.988Z,-2.85
2018-02-20T00:53:03.311Z,-2.85
2018-02-20T00:53:07.419Z,-2.86